sensor_id;sensor_type;location;lat;lon;timestamp;pressure;altitude;pressure_sealevel;temperature;humidity
77897;BME280;67092;64.282;21.056;2023-03-23T00:02:06;98553.70;;;21.00;24.98
77897;BME280;67092;64.282;21.056;2023-03-23T00:04:32;98558.08;;;20.87;25.00
77897;BME280;67092;64.282;21.056;2023-03-23T00:06:58;98555.98;;;20.96;24.82
77897;BME280;67092;64.282;21.056;2023-03-23T00:09:23;98551.86;;;20.85;24.68
77897;BME280;67092;64.282;21.056;2023-03-23T00:11:50;98549.43;;;21.26;24.41
77897;BME280;67092;64.282;21.056;2023-03-23T00:14:14;98544.55;;;20.88;24.69
77897;BME280;67092;64.282;21.056;2023-03-23T00:16:41;98541.56;;;20.95;24.57
77897;BME280;67092;64.282;21.056;2023-03-23T00:19:07;98540.68;;;21.01;24.67
77897;BME280;67092;64.282;21.056;2023-03-23T00:21:34;98536.17;;;21.10;24.06
77897;BME280;67092;64.282;21.056;2023-03-23T00:23:57;98547.58;;;21.01;24.56
77897;BME280;67092;64.282;21.056;2023-03-23T00:26:22;98549.68;;;20.63;24.67
77897;BME280;67092;64.282;21.056;2023-03-23T00:28:48;98547.52;;;21.33;24.32
77897;BME280;67092;64.282;21.056;2023-03-23T00:31:13;98544.47;;;20.75;24.49
77897;BME280;67092;64.282;21.056;2023-03-23T00:33:40;98543.86;;;20.65;24.56
77897;BME280;67092;64.282;21.056;2023-03-23T00:36:05;98541.43;;;20.79;24.40
77897;BME280;67092;64.282;21.056;2023-03-23T00:38:31;98542.96;;;20.76;24.32
77897;BME280;67092;64.282;21.056;2023-03-23T00:40:56;98540.27;;;20.84;24.46
77897;BME280;67092;64.282;21.056;2023-03-23T00:43:22;98532.92;;;20.99;24.03
77897;BME280;67092;64.282;21.056;2023-03-23T00:45:47;98532.29;;;20.69;24.28
77897;BME280;67092;64.282;21.056;2023-03-23T00:48:13;98531.20;;;21.03;23.87
77897;BME280;67092;64.282;21.056;2023-03-23T00:50:38;98536.74;;;20.57;24.28
77897;BME280;67092;64.282;21.056;2023-03-23T00:53:04;98527.63;;;20.98;24.00
77897;BME280;67092;64.282;21.056;2023-03-23T00:55:30;98522.94;;;21.33;23.68
77897;BME280;67092;64.282;21.056;2023-03-23T00:57:55;98518.77;;;20.64;24.07
77897;BME280;67092;64.282;21.056;2023-03-23T01:00:21;98529.66;;;20.48;24.15
77897;BME280;67092;64.282;21.056;2023-03-23T01:02:46;98524.87;;;20.73;24.04
77897;BME280;67092;64.282;21.056;2023-03-23T01:05:13;98516.77;;;19.92;23.94
77897;BME280;67092;64.282;21.056;2023-03-23T01:07:38;98517.69;;;20.37;23.87
77897;BME280;67092;64.282;21.056;2023-03-23T01:10:04;98515.65;;;20.70;23.65
77897;BME280;67092;64.282;21.056;2023-03-23T01:12:29;98513.24;;;20.91;23.69
77897;BME280;67092;64.282;21.056;2023-03-23T01:14:55;98509.54;;;20.57;23.74
77897;BME280;67092;64.282;21.056;2023-03-23T01:17:20;98512.29;;;20.20;24.01
77897;BME280;67092;64.282;21.056;2023-03-23T01:19:46;98511.23;;;20.20;23.96
77897;BME280;67092;64.282;21.056;2023-03-23T01:22:11;98513.30;;;20.34;23.73
77897;BME280;67092;64.282;21.056;2023-03-23T01:24:37;98514.86;;;20.70;23.69
77897;BME280;67092;64.282;21.056;2023-03-23T01:27:03;98512.48;;;20.28;23.82
77897;BME280;67092;64.282;21.056;2023-03-23T01:29:28;98512.08;;;20.30;23.80
77897;BME280;67092;64.282;21.056;2023-03-23T01:31:54;98508.54;;;20.54;23.79
77897;BME280;67092;64.282;21.056;2023-03-23T01:34:19;98502.88;;;20.40;23.90
77897;BME280;67092;64.282;21.056;2023-03-23T01:36:45;98494.31;;;20.55;23.50
77897;BME280;67092;64.282;21.056;2023-03-23T01:39:11;98503.79;;;20.32;23.91
77897;BME280;67092;64.282;21.056;2023-03-23T01:41:36;98499.68;;;20.60;23.61
77897;BME280;67092;64.282;21.056;2023-03-23T01:44:04;98509.30;;;20.58;23.75
77897;BME280;67092;64.282;21.056;2023-03-23T01:46:29;98507.93;;;20.76;23.29
77897;BME280;67092;64.282;21.056;2023-03-23T01:48:54;98505.06;;;20.40;23.63
77897;BME280;67092;64.282;21.056;2023-03-23T01:51:20;98500.98;;;20.78;23.49
77897;BME280;67092;64.282;21.056;2023-03-23T01:53:47;98495.77;;;20.17;23.85
77897;BME280;67092;64.282;21.056;2023-03-23T01:56:11;98499.25;;;20.00;23.74
77897;BME280;67092;64.282;21.056;2023-03-23T01:58:37;98494.08;;;20.69;23.50
77897;BME280;67092;64.282;21.056;2023-03-23T02:01:04;98489.66;;;20.86;23.41
77897;BME280;67092;64.282;21.056;2023-03-23T02:03:28;98483.39;;;20.41;23.78
77897;BME280;67092;64.282;21.056;2023-03-23T02:05:53;98490.06;;;19.76;24.11
77897;BME280;67092;64.282;21.056;2023-03-23T02:08:20;98479.19;;;20.51;23.62
77897;BME280;67092;64.282;21.056;2023-03-23T02:10:44;98483.73;;;20.57;23.50
77897;BME280;67092;64.282;21.056;2023-03-23T02:13:11;98495.86;;;20.22;23.56
77897;BME280;67092;64.282;21.056;2023-03-23T02:15:44;98489.78;;;20.04;23.59
77897;BME280;67092;64.282;21.056;2023-03-23T02:18:06;98489.78;;;20.23;23.63
77897;BME280;67092;64.282;21.056;2023-03-23T02:20:40;98492.26;;;20.12;23.70
77897;BME280;67092;64.282;21.056;2023-03-23T02:23:07;98491.12;;;20.44;23.41
77897;BME280;67092;64.282;21.056;2023-03-23T02:25:36;98490.84;;;20.55;23.23
77897;BME280;67092;64.282;21.056;2023-03-23T02:30:16;98488.69;;;19.95;23.74
77897;BME280;67092;64.282;21.056;2023-03-23T02:32:50;98484.57;;;20.50;23.17
77897;BME280;67092;64.282;21.056;2023-03-23T02:35:02;98489.58;;;20.27;23.36
77897;BME280;67092;64.282;21.056;2023-03-23T02:37:29;98491.23;;;20.26;23.36
77897;BME280;67092;64.282;21.056;2023-03-23T02:39:54;98491.99;;;20.23;23.33
77897;BME280;67092;64.282;21.056;2023-03-23T02:42:19;98482.47;;;20.46;23.27
77897;BME280;67092;64.282;21.056;2023-03-23T02:44:44;98494.85;;;19.98;23.25
77897;BME280;67092;64.282;21.056;2023-03-23T02:47:13;98500.15;;;20.21;23.23
77897;BME280;67092;64.282;21.056;2023-03-23T02:49:36;98502.49;;;20.26;23.33
77897;BME280;67092;64.282;21.056;2023-03-23T02:52:01;98490.45;;;20.19;23.45
77897;BME280;67092;64.282;21.056;2023-03-23T02:54:26;98500.06;;;20.47;23.20
77897;BME280;67092;64.282;21.056;2023-03-23T02:56:50;98492.95;;;20.50;23.11
77897;BME280;67092;64.282;21.056;2023-03-23T02:59:16;98491.43;;;20.55;23.02
77897;BME280;67092;64.282;21.056;2023-03-23T03:01:51;98493.47;;;20.10;23.24
77897;BME280;67092;64.282;21.056;2023-03-23T03:04:10;98494.04;;;19.61;23.42
77897;BME280;67092;64.282;21.056;2023-03-23T03:06:35;98486.48;;;19.84;23.50
77897;BME280;67092;64.282;21.056;2023-03-23T03:09:03;98499.24;;;20.49;23.05
77897;BME280;67092;64.282;21.056;2023-03-23T03:11:24;98505.12;;;20.06;23.25
77897;BME280;67092;64.282;21.056;2023-03-23T03:13:53;98505.80;;;20.31;23.20
77897;BME280;67092;64.282;21.056;2023-03-23T03:16:23;98506.21;;;20.41;22.93
77897;BME280;67092;64.282;21.056;2023-03-23T03:18:46;98498.17;;;20.14;23.43
77897;BME280;67092;64.282;21.056;2023-03-23T03:21:08;98503.93;;;19.65;23.42
77897;BME280;67092;64.282;21.056;2023-03-23T03:23:33;98506.07;;;19.87;23.41
77897;BME280;67092;64.282;21.056;2023-03-23T03:25:58;98511.24;;;20.37;23.18
77897;BME280;67092;64.282;21.056;2023-03-23T03:28:24;98508.69;;;20.51;23.11
77897;BME280;67092;64.282;21.056;2023-03-23T03:30:52;98504.01;;;19.65;23.52
77897;BME280;67092;64.282;21.056;2023-03-23T03:33:14;98506.14;;;20.10;23.31
77897;BME280;67092;64.282;21.056;2023-03-23T03:35:40;98511.31;;;20.04;23.16
77897;BME280;67092;64.282;21.056;2023-03-23T03:38:07;98512.62;;;20.12;23.05
77897;BME280;67092;64.282;21.056;2023-03-23T03:40:31;98512.80;;;19.59;23.49
77897;BME280;67092;64.282;21.056;2023-03-23T03:42:57;98516.69;;;20.31;22.90
77897;BME280;67092;64.282;21.056;2023-03-23T03:45:22;98524.92;;;20.05;23.14
77897;BME280;67092;64.282;21.056;2023-03-23T03:47:48;98520.04;;;19.76;23.56
77897;BME280;67092;64.282;21.056;2023-03-23T03:50:14;98522.65;;;19.93;23.43
77897;BME280;67092;64.282;21.056;2023-03-23T03:52:39;98526.28;;;19.91;23.21
77897;BME280;67092;64.282;21.056;2023-03-23T03:55:06;98519.06;;;20.09;23.17
77897;BME280;67092;64.282;21.056;2023-03-23T03:57:31;98521.46;;;19.93;23.12
77897;BME280;67092;64.282;21.056;2023-03-23T03:59:56;98519.39;;;19.77;23.47
77897;BME280;67092;64.282;21.056;2023-03-23T04:02:22;98530.81;;;19.42;23.54
77897;BME280;67092;64.282;21.056;2023-03-23T04:04:48;98531.24;;;19.67;23.11
77897;BME280;67092;64.282;21.056;2023-03-23T04:07:13;98530.02;;;20.05;23.17
77897;BME280;67092;64.282;21.056;2023-03-23T04:09:39;98531.68;;;19.93;23.02
77897;BME280;67092;64.282;21.056;2023-03-23T04:12:05;98536.73;;;20.01;22.93
77897;BME280;67092;64.282;21.056;2023-03-23T04:14:30;98536.03;;;20.16;23.06
77897;BME280;67092;64.282;21.056;2023-03-23T04:16:55;98536.05;;;20.15;23.07
77897;BME280;67092;64.282;21.056;2023-03-23T04:19:21;98534.87;;;19.93;23.22
77897;BME280;67092;64.282;21.056;2023-03-23T04:21:48;98539.22;;;19.98;23.16
77897;BME280;67092;64.282;21.056;2023-03-23T04:24:12;98540.38;;;20.45;22.70
77897;BME280;67092;64.282;21.056;2023-03-23T04:26:38;98537.63;;;20.00;23.07
77897;BME280;67092;64.282;21.056;2023-03-23T04:29:04;98539.38;;;19.66;23.14
77897;BME280;67092;64.282;21.056;2023-03-23T04:31:29;98537.84;;;19.92;23.08
77897;BME280;67092;64.282;21.056;2023-03-23T04:33:55;98540.43;;;19.99;22.87
77897;BME280;67092;64.282;21.056;2023-03-23T04:36:20;98546.79;;;19.95;23.07
77897;BME280;67092;64.282;21.056;2023-03-23T04:38:46;98549.86;;;19.75;23.15
77897;BME280;67092;64.282;21.056;2023-03-23T04:41:12;98556.90;;;20.04;22.70
77897;BME280;67092;64.282;21.056;2023-03-23T04:43:37;98551.44;;;19.89;23.02
77897;BME280;67092;64.282;21.056;2023-03-23T04:46:03;98559.68;;;19.71;23.17
77897;BME280;67092;64.282;21.056;2023-03-23T04:48:30;98560.40;;;19.99;22.89
77897;BME280;67092;64.282;21.056;2023-03-23T04:50:54;98564.65;;;20.00;22.87
77897;BME280;67092;64.282;21.056;2023-03-23T04:53:20;98565.36;;;19.77;23.12
77897;BME280;67092;64.282;21.056;2023-03-23T04:55:47;98564.39;;;20.25;22.69
77897;BME280;67092;64.282;21.056;2023-03-23T04:58:11;98566.19;;;20.04;22.81
77897;BME280;67092;64.282;21.056;2023-03-23T05:00:37;98566.67;;;19.64;23.12
77897;BME280;67092;64.282;21.056;2023-03-23T05:03:03;98565.51;;;19.68;23.07
77897;BME280;67092;64.282;21.056;2023-03-23T05:05:28;98572.06;;;19.98;22.77
77897;BME280;67092;64.282;21.056;2023-03-23T05:07:53;98569.73;;;19.43;23.01
77897;BME280;67092;64.282;21.056;2023-03-23T05:10:19;98574.62;;;19.85;23.09
77897;BME280;67092;64.282;21.056;2023-03-23T05:12:45;98582.25;;;20.17;22.63
77897;BME280;67092;64.282;21.056;2023-03-23T05:15:12;98580.56;;;20.06;22.74
77897;BME280;67092;64.282;21.056;2023-03-23T05:17:36;98588.12;;;19.92;22.89
77897;BME280;67092;64.282;21.056;2023-03-23T05:20:03;98589.10;;;19.71;23.08
77897;BME280;67092;64.282;21.056;2023-03-23T05:22:27;98595.40;;;20.32;22.73
77897;BME280;67092;64.282;21.056;2023-03-23T05:24:53;98590.45;;;19.55;23.06
77897;BME280;67092;64.282;21.056;2023-03-23T05:27:19;98595.61;;;20.05;22.85
77897;BME280;67092;64.282;21.056;2023-03-23T05:29:44;98596.85;;;19.61;23.15
77897;BME280;67092;64.282;21.056;2023-03-23T05:32:10;98602.47;;;19.79;22.78
77897;BME280;67092;64.282;21.056;2023-03-23T05:34:35;98600.90;;;19.91;22.91
77897;BME280;67092;64.282;21.056;2023-03-23T05:37:02;98615.22;;;20.06;22.84
77897;BME280;67092;64.282;21.056;2023-03-23T05:39:27;98611.83;;;19.81;23.00
77897;BME280;67092;64.282;21.056;2023-03-23T05:41:52;98627.52;;;19.80;22.92
77897;BME280;67092;64.282;21.056;2023-03-23T05:44:18;98614.32;;;19.52;23.17
77897;BME280;67092;64.282;21.056;2023-03-23T05:46:43;98629.65;;;19.63;23.13
77897;BME280;67092;64.282;21.056;2023-03-23T05:49:09;98636.06;;;19.89;22.94
77897;BME280;67092;64.282;21.056;2023-03-23T05:51:35;98645.95;;;19.93;22.85
77897;BME280;67092;64.282;21.056;2023-03-23T05:54:00;98643.17;;;19.64;23.06
77897;BME280;67092;64.282;21.056;2023-03-23T05:56:26;98650.21;;;19.59;23.10
77897;BME280;67092;64.282;21.056;2023-03-23T05:58:52;98648.41;;;19.71;23.25
77897;BME280;67092;64.282;21.056;2023-03-23T06:01:17;98645.76;;;20.04;23.17
77897;BME280;67092;64.282;21.056;2023-03-23T06:03:43;98652.98;;;19.56;23.29
77897;BME280;67092;64.282;21.056;2023-03-23T06:06:10;98659.54;;;19.88;22.99
77897;BME280;67092;64.282;21.056;2023-03-23T06:08:34;98663.02;;;19.74;23.04
77897;BME280;67092;64.282;21.056;2023-03-23T06:11:00;98667.24;;;20.00;22.75
77897;BME280;67092;64.282;21.056;2023-03-23T06:13:25;98673.10;;;19.58;22.84
77897;BME280;67092;64.282;21.056;2023-03-23T06:15:55;98673.46;;;19.73;23.65
77897;BME280;67092;64.282;21.056;2023-03-23T06:18:17;98676.67;;;19.82;23.75
77897;BME280;67092;64.282;21.056;2023-03-23T06:20:42;98682.34;;;19.36;24.42
77897;BME280;67092;64.282;21.056;2023-03-23T06:23:08;98686.51;;;20.13;24.15
77897;BME280;67092;64.282;21.056;2023-03-23T06:25:34;98688.62;;;19.36;24.48
77897;BME280;67092;64.282;21.056;2023-03-23T06:27:59;98689.33;;;19.32;24.30
77897;BME280;67092;64.282;21.056;2023-03-23T06:30:25;98694.75;;;19.48;24.09
77897;BME280;67092;64.282;21.056;2023-03-23T06:32:50;98696.53;;;19.41;24.01
77897;BME280;67092;64.282;21.056;2023-03-23T06:35:16;98702.80;;;19.64;23.72
77897;BME280;67092;64.282;21.056;2023-03-23T06:37:42;98706.13;;;19.86;23.40
77897;BME280;67092;64.282;21.056;2023-03-23T06:40:08;98707.89;;;19.30;23.80
77897;BME280;67092;64.282;21.056;2023-03-23T06:42:33;98711.58;;;19.72;23.33
77897;BME280;67092;64.282;21.056;2023-03-23T06:44:59;98716.99;;;19.37;23.54
77897;BME280;67092;64.282;21.056;2023-03-23T06:47:24;98718.80;;;19.70;23.21
77897;BME280;67092;64.282;21.056;2023-03-23T06:49:50;98722.74;;;19.06;23.66
77897;BME280;67092;64.282;21.056;2023-03-23T06:52:15;98722.41;;;19.79;22.94
77897;BME280;67092;64.282;21.056;2023-03-23T06:54:41;98732.97;;;19.37;23.23
77897;BME280;67092;64.282;21.056;2023-03-23T06:57:07;98733.48;;;19.27;23.28
77897;BME280;67092;64.282;21.056;2023-03-23T06:59:32;98739.66;;;19.52;22.99
77897;BME280;67092;64.282;21.056;2023-03-23T07:01:58;98729.68;;;19.78;22.74
77897;BME280;67092;64.282;21.056;2023-03-23T07:04:23;98738.05;;;19.12;23.05
77897;BME280;67092;64.282;21.056;2023-03-23T07:06:49;98739.31;;;19.39;23.02
77897;BME280;67092;64.282;21.056;2023-03-23T07:09:15;98735.05;;;19.16;23.00
77897;BME280;67092;64.282;21.056;2023-03-23T07:11:40;98737.75;;;19.65;22.69
77897;BME280;67092;64.282;21.056;2023-03-23T07:14:06;98746.93;;;19.81;22.52
77897;BME280;67092;64.282;21.056;2023-03-23T07:16:32;98749.93;;;19.63;22.64
77897;BME280;67092;64.282;21.056;2023-03-23T07:18:57;98755.99;;;18.90;23.25
77897;BME280;67092;64.282;21.056;2023-03-23T07:21:23;98761.49;;;19.36;22.82
77897;BME280;67092;64.282;21.056;2023-03-23T07:23:48;98755.17;;;19.23;23.09
77897;BME280;67092;64.282;21.056;2023-03-23T07:26:14;98769.42;;;19.36;22.75
77897;BME280;67092;64.282;21.056;2023-03-23T07:28:40;98773.74;;;19.25;22.78
77897;BME280;67092;64.282;21.056;2023-03-23T07:31:06;98784.35;;;18.97;22.72
77897;BME280;67092;64.282;21.056;2023-03-23T07:33:31;98795.30;;;19.00;22.88
77897;BME280;67092;64.282;21.056;2023-03-23T07:35:58;98796.91;;;19.45;22.45
77897;BME280;67092;64.282;21.056;2023-03-23T07:38:23;98805.24;;;19.54;22.53
77897;BME280;67092;64.282;21.056;2023-03-23T07:40:48;98804.42;;;19.84;22.26
77897;BME280;67092;64.282;21.056;2023-03-23T07:43:13;98811.23;;;19.27;22.50
77897;BME280;67092;64.282;21.056;2023-03-23T07:45:39;98819.26;;;19.34;22.43
77897;BME280;67092;64.282;21.056;2023-03-23T07:48:05;98828.66;;;19.68;22.11
77897;BME280;67092;64.282;21.056;2023-03-23T07:50:30;98827.85;;;19.09;22.59
77897;BME280;67092;64.282;21.056;2023-03-23T07:52:56;98835.77;;;19.46;22.30
77897;BME280;67092;64.282;21.056;2023-03-23T07:55:22;98842.41;;;19.57;22.15
77897;BME280;67092;64.282;21.056;2023-03-23T07:57:47;98843.48;;;19.39;22.26
77897;BME280;67092;64.282;21.056;2023-03-23T08:00:14;98850.26;;;19.59;22.04
77897;BME280;67092;64.282;21.056;2023-03-23T08:02:38;98850.51;;;19.51;22.08
77897;BME280;67092;64.282;21.056;2023-03-23T08:05:04;98854.73;;;19.52;22.08
77897;BME280;67092;64.282;21.056;2023-03-23T08:07:29;98871.74;;;19.25;22.27
77897;BME280;67092;64.282;21.056;2023-03-23T08:09:55;98881.36;;;19.44;22.12
77897;BME280;67092;64.282;21.056;2023-03-23T08:12:20;98884.75;;;19.21;22.23
77897;BME280;67092;64.282;21.056;2023-03-23T08:14:46;98878.53;;;19.41;22.27
77897;BME280;67092;64.282;21.056;2023-03-23T08:17:12;98882.02;;;19.44;22.19
77897;BME280;67092;64.282;21.056;2023-03-23T08:19:37;98884.50;;;19.46;22.19
77897;BME280;67092;64.282;21.056;2023-03-23T08:22:03;98886.90;;;19.44;21.98
77897;BME280;67092;64.282;21.056;2023-03-23T08:24:29;98884.76;;;19.59;21.82
77897;BME280;67092;64.282;21.056;2023-03-23T08:26:54;98891.53;;;19.26;22.07
77897;BME280;67092;64.282;21.056;2023-03-23T08:29:20;98900.26;;;19.28;21.98
77897;BME280;67092;64.282;21.056;2023-03-23T08:31:46;98902.82;;;19.28;21.98
77897;BME280;67092;64.282;21.056;2023-03-23T08:34:11;98910.48;;;19.30;21.92
77897;BME280;67092;64.282;21.056;2023-03-23T08:36:37;98917.56;;;19.23;21.90
77897;BME280;67092;64.282;21.056;2023-03-23T08:39:03;98917.84;;;19.23;21.91
77897;BME280;67092;64.282;21.056;2023-03-23T08:41:28;98924.80;;;19.25;21.87
77897;BME280;67092;64.282;21.056;2023-03-23T08:43:54;98929.81;;;19.46;21.67
77897;BME280;67092;64.282;21.056;2023-03-23T08:46:19;98935.90;;;19.50;21.81
77897;BME280;67092;64.282;21.056;2023-03-23T08:48:45;98934.04;;;19.46;21.79
77897;BME280;67092;64.282;21.056;2023-03-23T08:51:11;98953.69;;;19.18;21.76
77897;BME280;67092;64.282;21.056;2023-03-23T08:53:36;98955.07;;;19.75;21.50
77897;BME280;67092;64.282;21.056;2023-03-23T08:56:04;98971.55;;;19.59;21.60
77897;BME280;67092;64.282;21.056;2023-03-23T08:58:27;98959.68;;;19.85;21.35
77897;BME280;67092;64.282;21.056;2023-03-23T09:00:53;98968.32;;;19.53;21.58
77897;BME280;67092;64.282;21.056;2023-03-23T09:03:19;98979.20;;;19.19;21.61
77897;BME280;67092;64.282;21.056;2023-03-23T09:05:44;98985.42;;;19.49;21.37
77897;BME280;67092;64.282;21.056;2023-03-23T09:08:11;98991.24;;;19.15;21.56
77897;BME280;67092;64.282;21.056;2023-03-23T09:10:35;98992.61;;;19.45;21.39
77897;BME280;67092;64.282;21.056;2023-03-23T09:13:01;98994.37;;;19.16;21.64
77897;BME280;67092;64.282;21.056;2023-03-23T09:15:27;99003.77;;;19.35;21.50
77897;BME280;67092;64.282;21.056;2023-03-23T09:17:53;99011.25;;;19.29;21.55
77897;BME280;67092;64.282;21.056;2023-03-23T09:20:22;99006.95;;;19.61;21.23
77897;BME280;67092;64.282;21.056;2023-03-23T09:22:45;99020.83;;;19.55;21.11
77897;BME280;67092;64.282;21.056;2023-03-23T09:25:11;99028.62;;;19.39;21.20
77897;BME280;67092;64.282;21.056;2023-03-23T09:27:35;99031.52;;;20.21;20.71
77897;BME280;67092;64.282;21.056;2023-03-23T09:30:00;99040.41;;;20.46;20.53
77897;BME280;67092;64.282;21.056;2023-03-23T09:32:25;99039.99;;;19.83;20.77
77897;BME280;67092;64.282;21.056;2023-03-23T09:34:50;99035.54;;;20.06;20.58
77897;BME280;67092;64.282;21.056;2023-03-23T09:37:16;99044.64;;;20.20;20.65
77897;BME280;67092;64.282;21.056;2023-03-23T09:39:42;99049.57;;;19.97;20.63
77897;BME280;67092;64.282;21.056;2023-03-23T09:42:16;99049.34;;;20.31;20.36
77897;BME280;67092;64.282;21.056;2023-03-23T09:44:44;99055.10;;;20.04;20.56
77897;BME280;67092;64.282;21.056;2023-03-23T09:47:02;99054.40;;;20.32;20.51
77897;BME280;67092;64.282;21.056;2023-03-23T09:49:27;99052.45;;;19.76;20.75
77897;BME280;67092;64.282;21.056;2023-03-23T09:51:52;99055.64;;;19.56;20.71
77897;BME280;67092;64.282;21.056;2023-03-23T09:54:19;99060.02;;;19.93;20.61
77897;BME280;67092;64.282;21.056;2023-03-23T09:56:39;99066.75;;;19.94;20.56
77897;BME280;67092;64.282;21.056;2023-03-23T09:59:12;99068.16;;;19.62;20.78
77897;BME280;67092;64.282;21.056;2023-03-23T10:01:33;99069.11;;;19.84;20.80
77897;BME280;67092;64.282;21.056;2023-03-23T10:04:02;99077.88;;;19.83;20.59
77897;BME280;67092;64.282;21.056;2023-03-23T10:06:21;99082.19;;;20.24;20.45
77897;BME280;67092;64.282;21.056;2023-03-23T10:08:47;99080.77;;;19.85;20.52
77897;BME280;67092;64.282;21.056;2023-03-23T10:11:16;99088.15;;;20.39;20.29
77897;BME280;67092;64.282;21.056;2023-03-23T10:13:53;99093.70;;;20.08;20.48
77897;BME280;67092;64.282;21.056;2023-03-23T10:16:03;99096.17;;;20.34;20.28
77897;BME280;67092;64.282;21.056;2023-03-23T10:18:32;99095.78;;;20.26;20.34
77897;BME280;67092;64.282;21.056;2023-03-23T10:20:55;99096.99;;;19.88;20.62
77897;BME280;67092;64.282;21.056;2023-03-23T10:23:35;99093.40;;;19.74;20.73
77897;BME280;67092;64.282;21.056;2023-03-23T10:25:49;99095.54;;;19.99;20.35
77897;BME280;67092;64.282;21.056;2023-03-23T10:28:11;99096.35;;;19.93;20.35
77897;BME280;67092;64.282;21.056;2023-03-23T10:30:36;99101.38;;;20.16;20.37
77897;BME280;67092;64.282;21.056;2023-03-23T10:33:03;99097.94;;;20.28;20.03
77897;BME280;67092;64.282;21.056;2023-03-23T10:35:28;99108.68;;;19.56;20.41
77897;BME280;67092;64.282;21.056;2023-03-23T10:37:55;99119.65;;;20.16;20.11
77897;BME280;67092;64.282;21.056;2023-03-23T10:40:18;99128.81;;;20.07;20.37
77897;BME280;67092;64.282;21.056;2023-03-23T10:42:41;99134.13;;;20.31;20.01
77897;BME280;67092;64.282;21.056;2023-03-23T10:45:15;99123.60;;;20.49;20.08
77897;BME280;67092;64.282;21.056;2023-03-23T10:47:32;99142.86;;;20.21;20.05
77897;BME280;67092;64.282;21.056;2023-03-23T10:50:00;99141.10;;;19.74;20.26
77897;BME280;67092;64.282;21.056;2023-03-23T10:52:30;99148.37;;;19.68;20.46
77897;BME280;67092;64.282;21.056;2023-03-23T10:54:51;99148.74;;;20.10;20.18
77897;BME280;67092;64.282;21.056;2023-03-23T10:57:21;99156.24;;;19.83;20.19
77897;BME280;67092;64.282;21.056;2023-03-23T10:59:40;99155.31;;;20.17;20.07
77897;BME280;67092;64.282;21.056;2023-03-23T11:02:14;99158.97;;;20.50;20.02
77897;BME280;67092;64.282;21.056;2023-03-23T11:04:30;99173.62;;;20.13;20.34
77897;BME280;67092;64.282;21.056;2023-03-23T11:06:59;99169.11;;;20.36;20.16
77897;BME280;67092;64.282;21.056;2023-03-23T11:09:21;99172.16;;;20.28;19.98
77897;BME280;67092;64.282;21.056;2023-03-23T11:11:49;99172.76;;;20.19;20.06
77897;BME280;67092;64.282;21.056;2023-03-23T11:14:17;99180.39;;;20.27;20.18
77897;BME280;67092;64.282;21.056;2023-03-23T11:16:42;99181.03;;;20.60;19.78
77897;BME280;67092;64.282;21.056;2023-03-23T11:21:27;99198.26;;;20.29;19.96
77897;BME280;67092;64.282;21.056;2023-03-23T11:23:54;99203.05;;;20.14;19.91
77897;BME280;67092;64.282;21.056;2023-03-23T11:26:21;99208.94;;;20.47;20.00
77897;BME280;67092;64.282;21.056;2023-03-23T11:28:45;99206.81;;;20.12;19.90
77897;BME280;67092;64.282;21.056;2023-03-23T11:31:09;99217.22;;;20.03;19.95
77897;BME280;67092;64.282;21.056;2023-03-23T11:33:38;99234.72;;;20.27;19.95
77897;BME280;67092;64.282;21.056;2023-03-23T11:36:00;99238.75;;;20.29;19.92
77897;BME280;67092;64.282;21.056;2023-03-23T11:38:26;99236.32;;;20.21;19.76
77897;BME280;67092;64.282;21.056;2023-03-23T11:40:52;99239.48;;;20.25;19.75
77897;BME280;67092;64.282;21.056;2023-03-23T11:43:19;99242.19;;;20.25;19.90
77897;BME280;67092;64.282;21.056;2023-03-23T11:45:50;99244.26;;;20.09;20.02
77897;BME280;67092;64.282;21.056;2023-03-23T11:48:15;99246.49;;;20.34;19.82
77897;BME280;67092;64.282;21.056;2023-03-23T11:50:43;99245.62;;;20.61;19.63
77897;BME280;67092;64.282;21.056;2023-03-23T11:53:02;99243.79;;;20.82;19.42
77897;BME280;67092;64.282;21.056;2023-03-23T11:55:30;99260.84;;;20.54;19.62
77897;BME280;67092;64.282;21.056;2023-03-23T11:57:49;99264.09;;;20.12;19.75
77897;BME280;67092;64.282;21.056;2023-03-23T12:00:16;99268.24;;;20.60;19.37
77897;BME280;67092;64.282;21.056;2023-03-23T12:02:45;99277.34;;;20.31;19.75
77897;BME280;67092;64.282;21.056;2023-03-23T12:07:41;99279.82;;;20.58;19.52
77897;BME280;67092;64.282;21.056;2023-03-23T12:10:02;99289.49;;;20.61;19.53
77897;BME280;67092;64.282;21.056;2023-03-23T12:12:31;99287.35;;;20.48;19.60
77897;BME280;67092;64.282;21.056;2023-03-23T12:14:55;99295.60;;;20.67;19.44
77897;BME280;67092;64.282;21.056;2023-03-23T12:17:20;99305.39;;;20.91;19.24
77897;BME280;67092;64.282;21.056;2023-03-23T12:19:43;99306.61;;;20.52;19.35
77897;BME280;67092;64.282;21.056;2023-03-23T12:22:09;99308.48;;;20.27;19.52
77897;BME280;67092;64.282;21.056;2023-03-23T12:24:40;99313.04;;;20.33;19.67
77897;BME280;67092;64.282;21.056;2023-03-23T12:26:58;99311.71;;;20.55;19.53
77897;BME280;67092;64.282;21.056;2023-03-23T12:29:33;99314.99;;;20.45;19.61
77897;BME280;67092;64.282;21.056;2023-03-23T12:31:53;99309.55;;;20.54;19.70
77897;BME280;67092;64.282;21.056;2023-03-23T12:34:18;99313.15;;;20.52;19.56
77897;BME280;67092;64.282;21.056;2023-03-23T12:36:45;99317.80;;;20.60;19.28
77897;BME280;67092;64.282;21.056;2023-03-23T12:41:30;99309.69;;;20.08;19.62
77897;BME280;67092;64.282;21.056;2023-03-23T12:43:53;99311.28;;;20.35;19.45
77897;BME280;67092;64.282;21.056;2023-03-23T12:46:31;99313.40;;;20.37;19.41
77897;BME280;67092;64.282;21.056;2023-03-23T12:48:46;99307.25;;;20.45;19.57
77897;BME280;67092;64.282;21.056;2023-03-23T12:51:14;99307.68;;;20.60;19.44